Taipei, Taiwan

6:40 PM CST on August 30, 2014 (GMT +0800)
ITAIPEIT2 | Change Station
CLOSE
Current Station
Personal Weather Station
Location: Taipei Da'An, Taiwan
Elevation: 30 ft
Nearby Weather Stations

Elev 30 ft 25.03 °N, 121.53 °E | Updated 1 minute ago

Scattered Clouds
Scattered Clouds
87.6 °F
Feels Like 97 °F
N
2.0
Wind Variable Wind from East
Gusts 6.0 mph

Today
High -- | Low -- °F
--% Chance of Precip.
Yesterday
High -- | Low -- °F
Precip. -- in
5:33 AM 6:15 PM
Waxing Crescent, 21% visible
Pressure 29.83 in
Visibility 6.2 miles
Clouds Few 2500 ft
Scattered Clouds 12000 ft
Heat Index 97 °F
Dew Point 75 °F
Humidity 66%
Rainfall 0.09 in
Snow Depth Not available.
UV 0.0 out of 12
Pollen Not available.
Air Quality Not available.
Flu Activity Not available.
METAR RCSS 301030Z 12006KT 9999 FEW025 SCT120 30/22 Q1010 NOSIG RMK A2983

More Conditions Fewer Conditions

Pressure 29.83 in
Visibility 6.2 miles
Clouds Few 2500 ft
Scattered Clouds 12000 ft
Heat Index 97 °F
Dew Point 75 °F
Humidity 66%
Rainfall 0.09 in
Snow Depth Not available.
UV 0.0 out of 12
Pollen Not available.
Air Quality Not available.
Flu Activity Not available.
METAR RCSS 301030Z 12006KT 9999 FEW025 SCT120 30/22 Q1010 NOSIG RMK A2983

More Conditions Fewer Conditions

10-Day Weather Forecast

Almanac

Astronomy

Aug. 30, 2014 Rise Set
Actual Time 5:33 AM CST 6:15 PM CST
Civil Twilight 5:10 AM CST 6:38 PM CST
Nautical Twilight 4:43 AM CST 7:05 PM CST
Astronomical Twilight 4:15 AM CST 7:33 PM CST
Moon 9:17 AM CST 8:59 PM CST
Length of Visible Light 13h 27m
Length of Day
12h 41m
Tomorrow will be 1m 23s shorter.
Waxing Crescent, 21% of the Moon is Illuminated
Today
Waxing Crescent
Sep 2
First Quarter
Sep 8
Full
Sep 15
Last Quarter
Sep 24
New

Yesterday's Extremes

Country Highs Country Lows

Community

WunderPhotos

Upload Photos

1,748,482 photos uploaded!

WunderBlogs® & News

By Dr. Jeff Masters
Director of Meteorology, Weather Underground
By Kari Strenfel
Meteorologist, Weather Underground
By Christopher C. Burt
Weather Historian, Weather Underground
August 30, 2014
August 29, 2014
August 29, 2014

Nearby

Snow Depth

Not available.

Earthquake Activity

City Distance Mag. Time & Date
No recent earthquake activity has been reported nearby.
Minimum magnitude displayed is 2.5.

Coastal Water Temperatures

Place Temperature
No Stations Reporting

Nearby Weather Stations